CBC6 weather

Calgary / Blue-Con Heliport
Calgary, Alberta, Canada

Public forecast

Using degrees Celsius for public forecast. Weather courtesy of forecast.io.

METAR (pilot weather report)

Closest report is Calgary International Airport, 8.5 nm (15.7 km) NW. Retrieved 2019/06/24 09:00 UTC (5 minutes ago):

CYYC 240900Z 30009KT 7SM -SHRA FEW055 BKN073 BKN120 11/07 A2985 RMK SC2AC5AC1 AC TR PCPN VRY LGT SLP116 DENSITY ALT 4100FT

TAF (pilot weather forecast)

Closest forecast is Calgary International Airport, 8.5 nm (15.7 km) NW. Retrieved 2019/06/24 09:42 UTC (0 seconds ago):

TAF TAF CYYC 240838Z 2409/2506 30010KT P6SM SCT030 BKN060 TEMPO 2409/2412 4SM -SHRA BR BKN030 FM241200 32008KT P6SM SCT040 BKN080 FM241600 30006KT P6SM SCT040 SCT250 FM242100 VRB03KT P6SM BKN040 TEMPO 2421/2504 P6SM -SHRA VCTS BKN040CB FM250400 34006KT P6SM VCSH BKN025 RMK NXT FCST BY 241200Z